首页
METAR-TAF:

METAR-TAF

机场 :

瓦朗斯, 法国

纬度: 44-54-58N, 经度: 4-58-06E, 海拔: 160米

当前天气观测

该预报发布于11小时和53分钟前的18:00 UTC
风速9节,风向
温度 5°C
湿度 70%
气压 1021 hPa
能见度10公里或以上
多云层高于4100英尺

METAR: LFLU 111800Z AUTO 36009KT 9999 BKN041 05/00 Q1021

时间: 06:53 (05:53 UTC)


TAF: 丢失

超过4000个机场的气象观测和天气预报(METAR&TAF报告)。

可查询的气象台以黄色和红色小点在地图上表示。

将鼠标移到小点上方,可查看气象台名称。

然后点击查看天气观测和预报。

如需切换地图:点击带黑十字的绿色按钮放大地图;点击带横线的绿色按钮缩小地图;或者点击绿色箭头查看邻近地区的地图。


METAR-TAF: